sensor_id;sensor_type;location;lat;lon;timestamp;pressure;altitude;pressure_sealevel;temperature;humidity
40918;BME280;26644;50.248;19.032;2023-03-14T00:01:08;96664.19;;;11.05;48.12
40918;BME280;26644;50.248;19.032;2023-03-14T00:04:17;96664.19;;;11.05;48.38
40918;BME280;26644;50.248;19.032;2023-03-14T00:07:22;96644.53;;;10.94;48.51
40918;BME280;26644;50.248;19.032;2023-03-14T00:10:30;96623.19;;;11.00;48.62
40918;BME280;26644;50.248;19.032;2023-03-14T00:13:35;96622.38;;;10.99;48.36
40918;BME280;26644;50.248;19.032;2023-03-14T00:16:40;96601.88;;;10.97;48.67
40918;BME280;26644;50.248;19.032;2023-03-14T00:19:48;96582.00;;;11.00;48.77
40918;BME280;26644;50.248;19.032;2023-03-14T00:22:59;96560.84;;;11.00;48.69
40918;BME280;26644;50.248;19.032;2023-03-14T00:26:06;96532.28;;;10.92;48.81
40918;BME280;26644;50.248;19.032;2023-03-14T00:29:13;96539.00;;;11.04;48.66
40918;BME280;26644;50.248;19.032;2023-03-14T00:32:20;96535.47;;;11.03;48.86
40918;BME280;26644;50.248;19.032;2023-03-14T00:35:28;96532.22;;;11.10;48.43
40918;BME280;26644;50.248;19.032;2023-03-14T00:38:33;96520.56;;;11.13;48.47
40918;BME280;26644;50.248;19.032;2023-03-14T00:41:40;96516.50;;;11.19;48.18
40918;BME280;26644;50.248;19.032;2023-03-14T00:44:45;96513.66;;;11.37;48.02
40918;BME280;26644;50.248;19.032;2023-03-14T00:47:50;96498.13;;;11.41;47.61
40918;BME280;26644;50.248;19.032;2023-03-14T00:50:58;96485.22;;;11.41;47.67
40918;BME280;26644;50.248;19.032;2023-03-14T00:54:03;96505.00;;;11.56;47.26
40918;BME280;26644;50.248;19.032;2023-03-14T00:57:08;96511.63;;;11.55;47.49
40918;BME280;26644;50.248;19.032;2023-03-14T01:00:14;96508.56;;;11.56;47.45
40918;BME280;26644;50.248;19.032;2023-03-14T01:03:19;96490.34;;;11.52;47.39
40918;BME280;26644;50.248;19.032;2023-03-14T01:06:29;96495.16;;;11.55;47.25
40918;BME280;26644;50.248;19.032;2023-03-14T01:09:34;96505.81;;;11.56;47.30
40918;BME280;26644;50.248;19.032;2023-03-14T01:12:39;96510.34;;;11.52;47.27
40918;BME280;26644;50.248;19.032;2023-03-14T01:15:44;96498.94;;;11.41;47.38
40918;BME280;26644;50.248;19.032;2023-03-14T01:18:49;96486.91;;;11.25;47.68
40918;BME280;26644;50.248;19.032;2023-03-14T01:21:58;96483.72;;;11.14;47.59
40918;BME280;26644;50.248;19.032;2023-03-14T01:25:05;96471.31;;;11.08;47.88
40918;BME280;26644;50.248;19.032;2023-03-14T01:28:11;96449.25;;;10.95;48.06
40918;BME280;26644;50.248;19.032;2023-03-14T01:31:18;96434.31;;;10.84;48.47
40918;BME280;26644;50.248;19.032;2023-03-14T01:34:23;96420.94;;;10.74;48.47
40918;BME280;26644;50.248;19.032;2023-03-14T01:37:31;96421.59;;;10.71;48.71
40918;BME280;26644;50.248;19.032;2023-03-14T01:40:42;96415.16;;;10.67;48.65
40918;BME280;26644;50.248;19.032;2023-03-14T01:43:50;96409.38;;;10.68;48.81
40918;BME280;26644;50.248;19.032;2023-03-14T01:46:55;96403.88;;;10.68;48.79
40918;BME280;26644;50.248;19.032;2023-03-14T01:50:05;96394.22;;;10.62;48.73
40918;BME280;26644;50.248;19.032;2023-03-14T01:53:18;96398.22;;;10.65;48.55
40918;BME280;26644;50.248;19.032;2023-03-14T01:56:25;96398.88;;;10.61;48.42
40918;BME280;26644;50.248;19.032;2023-03-14T01:59:32;96406.66;;;10.59;48.31
40918;BME280;26644;50.248;19.032;2023-03-14T02:02:43;96394.53;;;10.52;48.40
40918;BME280;26644;50.248;19.032;2023-03-14T02:05:56;96407.94;;;10.62;48.25
40918;BME280;26644;50.248;19.032;2023-03-14T02:09:14;96399.03;;;10.65;47.91
40918;BME280;26644;50.248;19.032;2023-03-14T02:12:20;96405.34;;;10.66;47.84
40918;BME280;26644;50.248;19.032;2023-03-14T02:15:42;96405.97;;;10.63;48.18
40918;BME280;26644;50.248;19.032;2023-03-14T02:19:21;96365.03;;;10.40;48.12
40918;BME280;26644;50.248;19.032;2023-03-14T02:22:45;96395.34;;;10.61;48.33
40918;BME280;26644;50.248;19.032;2023-03-14T02:25:58;96390.19;;;10.59;48.29
40918;BME280;26644;50.248;19.032;2023-03-14T02:29:11;96409.22;;;10.56;48.27
40918;BME280;26644;50.248;19.032;2023-03-14T02:32:18;96408.25;;;10.52;48.62
40918;BME280;26644;50.248;19.032;2023-03-14T02:35:28;96403.28;;;10.45;49.03
40918;BME280;26644;50.248;19.032;2023-03-14T02:38:45;96369.59;;;10.27;49.22
40918;BME280;26644;50.248;19.032;2023-03-14T02:41:55;96385.88;;;10.32;49.48
40918;BME280;26644;50.248;19.032;2023-03-14T02:45:32;96386.28;;;10.13;50.43
40918;BME280;26644;50.248;19.032;2023-03-14T02:48:45;96377.94;;;9.83;51.40
40918;BME280;26644;50.248;19.032;2023-03-14T02:51:54;96371.84;;;9.51;52.08
40918;BME280;26644;50.248;19.032;2023-03-14T02:55:00;96382.66;;;9.39;52.54
40918;BME280;26644;50.248;19.032;2023-03-14T02:58:05;96393.28;;;9.32;52.53
40918;BME280;26644;50.248;19.032;2023-03-14T03:01:14;96395.38;;;9.35;52.64
40918;BME280;26644;50.248;19.032;2023-03-14T03:04:19;96395.84;;;9.37;52.57
40918;BME280;26644;50.248;19.032;2023-03-14T03:07:24;96397.13;;;9.39;52.75
40918;BME280;26644;50.248;19.032;2023-03-14T03:10:32;96384.41;;;9.35;52.71
40918;BME280;26644;50.248;19.032;2023-03-14T03:13:38;96392.16;;;9.24;53.34
40918;BME280;26644;50.248;19.032;2023-03-14T03:16:46;96383.25;;;9.18;53.61
40918;BME280;26644;50.248;19.032;2023-03-14T03:19:51;96385.53;;;9.16;54.16
40918;BME280;26644;50.248;19.032;2023-03-14T03:22:56;96399.53;;;9.06;54.28
40918;BME280;26644;50.248;19.032;2023-03-14T03:26:03;96393.22;;;8.97;54.65
40918;BME280;26644;50.248;19.032;2023-03-14T03:29:08;96382.25;;;8.88;55.10
40918;BME280;26644;50.248;19.032;2023-03-14T03:32:16;96387.88;;;8.83;55.17
40918;BME280;26644;50.248;19.032;2023-03-14T03:35:21;96392.97;;;8.75;55.27
40918;BME280;26644;50.248;19.032;2023-03-14T03:38:30;96432.25;;;8.79;55.36
40918;BME280;26644;50.248;19.032;2023-03-14T03:41:37;96440.94;;;8.73;55.52
40918;BME280;26644;50.248;19.032;2023-03-14T03:44:42;96462.81;;;8.73;55.92
40918;BME280;26644;50.248;19.032;2023-03-14T03:47:50;96461.50;;;8.70;56.14
40918;BME280;26644;50.248;19.032;2023-03-14T03:50:55;96450.53;;;8.61;56.14
40918;BME280;26644;50.248;19.032;2023-03-14T03:54:00;96454.59;;;8.73;56.31
40918;BME280;26644;50.248;19.032;2023-03-14T03:57:09;96462.84;;;8.82;56.14
40918;BME280;26644;50.248;19.032;2023-03-14T04:00:14;96449.84;;;8.87;55.95
40918;BME280;26644;50.248;19.032;2023-03-14T04:03:22;96423.66;;;8.95;55.78
40918;BME280;26644;50.248;19.032;2023-03-14T04:06:29;96423.69;;;9.13;55.34
40918;BME280;26644;50.248;19.032;2023-03-14T04:09:37;96414.38;;;9.31;54.74
40918;BME280;26644;50.248;19.032;2023-03-14T04:12:53;96400.53;;;9.54;53.83
40918;BME280;26644;50.248;19.032;2023-03-14T04:16:01;96418.25;;;9.91;52.81
40918;BME280;26644;50.248;19.032;2023-03-14T04:19:10;96412.91;;;10.13;52.21
40918;BME280;26644;50.248;19.032;2023-03-14T04:22:16;96410.88;;;10.39;51.75
40918;BME280;26644;50.248;19.032;2023-03-14T04:25:24;96404.38;;;10.53;51.41
40918;BME280;26644;50.248;19.032;2023-03-14T04:28:33;96409.38;;;10.59;50.92
40918;BME280;26644;50.248;19.032;2023-03-14T04:31:41;96403.38;;;10.66;51.01
40918;BME280;26644;50.248;19.032;2023-03-14T04:34:49;96406.41;;;10.73;50.80
40918;BME280;26644;50.248;19.032;2023-03-14T04:37:54;96400.78;;;10.70;50.69
40918;BME280;26644;50.248;19.032;2023-03-14T04:41:01;96405.13;;;10.71;50.63
40918;BME280;26644;50.248;19.032;2023-03-14T04:44:07;96401.59;;;10.70;50.50
40918;BME280;26644;50.248;19.032;2023-03-14T04:47:13;96392.56;;;10.70;50.47
40918;BME280;26644;50.248;19.032;2023-03-14T04:50:22;96387.06;;;10.70;50.41
40918;BME280;26644;50.248;19.032;2023-03-14T04:53:28;96361.69;;;10.73;50.31
40918;BME280;26644;50.248;19.032;2023-03-14T04:56:34;96360.09;;;10.72;50.53
40918;BME280;26644;50.248;19.032;2023-03-14T04:59:40;96340.78;;;10.51;50.59
40918;BME280;26644;50.248;19.032;2023-03-14T05:03:05;96367.75;;;10.57;50.39
40918;BME280;26644;50.248;19.032;2023-03-14T05:06:34;96377.91;;;10.66;50.35
40918;BME280;26644;50.248;19.032;2023-03-14T05:09:59;96360.28;;;10.67;50.32
40918;BME280;26644;50.248;19.032;2023-03-14T05:13:19;96342.75;;;10.59;50.67
40918;BME280;26644;50.248;19.032;2023-03-14T05:16:36;96350.75;;;10.64;50.39
40918;BME280;26644;50.248;19.032;2023-03-14T05:20:08;96344.81;;;10.62;50.77
40918;BME280;26644;50.248;19.032;2023-03-14T05:23:35;96324.00;;;10.61;50.70
40918;BME280;26644;50.248;19.032;2023-03-14T05:26:49;96325.59;;;10.62;50.72
40918;BME280;26644;50.248;19.032;2023-03-14T05:30:17;96309.28;;;10.66;50.71
40918;BME280;26644;50.248;19.032;2023-03-14T05:33:44;96314.09;;;10.69;50.53
40918;BME280;26644;50.248;19.032;2023-03-14T05:37:27;96320.06;;;10.71;50.43
40918;BME280;26644;50.248;19.032;2023-03-14T05:40:53;96317.13;;;10.76;50.27
40918;BME280;26644;50.248;19.032;2023-03-14T05:44:18;96333.06;;;10.83;50.21
40918;BME280;26644;50.248;19.032;2023-03-14T05:47:48;96327.56;;;10.83;50.13
40918;BME280;26644;50.248;19.032;2023-03-14T05:51:06;96317.47;;;10.74;50.28
40918;BME280;26644;50.248;19.032;2023-03-14T05:54:24;96332.88;;;10.88;49.91
40918;BME280;26644;50.248;19.032;2023-03-14T05:57:53;96307.91;;;10.81;50.12
40918;BME280;26644;50.248;19.032;2023-03-14T06:01:01;96308.50;;;10.86;49.91
40918;BME280;26644;50.248;19.032;2023-03-14T06:04:36;96300.69;;;10.97;49.82
40918;BME280;26644;50.248;19.032;2023-03-14T06:07:43;96305.22;;;10.93;50.17
40918;BME280;26644;50.248;19.032;2023-03-14T06:10:51;96312.34;;;10.94;50.10
40918;BME280;26644;50.248;19.032;2023-03-14T06:14:04;96306.50;;;10.95;49.94
40918;BME280;26644;50.248;19.032;2023-03-14T06:17:09;96304.78;;;10.91;49.93
40918;BME280;26644;50.248;19.032;2023-03-14T06:20:26;96292.53;;;10.88;49.73
40918;BME280;26644;50.248;19.032;2023-03-14T06:23:31;96300.28;;;11.07;49.43
40918;BME280;26644;50.248;19.032;2023-03-14T06:26:41;96306.84;;;11.15;49.64
40918;BME280;26644;50.248;19.032;2023-03-14T06:29:46;96300.44;;;11.11;49.39
40918;BME280;26644;50.248;19.032;2023-03-14T06:32:52;96302.34;;;11.10;49.55
40918;BME280;26644;50.248;19.032;2023-03-14T06:35:58;96287.44;;;11.20;49.65
40918;BME280;26644;50.248;19.032;2023-03-14T06:39:05;96281.25;;;11.23;49.38
40918;BME280;26644;50.248;19.032;2023-03-14T06:42:16;96280.53;;;11.14;49.51
40918;BME280;26644;50.248;19.032;2023-03-14T06:45:22;96263.69;;;11.16;49.48
40918;BME280;26644;50.248;19.032;2023-03-14T06:48:28;96262.78;;;11.11;49.64
40918;BME280;26644;50.248;19.032;2023-03-14T06:51:34;96213.56;;;10.85;49.63
40918;BME280;26644;50.248;19.032;2023-03-14T06:54:41;96250.31;;;11.14;49.57
40918;BME280;26644;50.248;19.032;2023-03-14T06:57:49;96257.00;;;11.25;49.62
40918;BME280;26644;50.248;19.032;2023-03-14T07:00:55;96242.53;;;11.37;49.08
40918;BME280;26644;50.248;19.032;2023-03-14T07:04:05;96262.56;;;11.50;48.94
40918;BME280;26644;50.248;19.032;2023-03-14T07:07:12;96254.25;;;11.59;48.84
40918;BME280;26644;50.248;19.032;2023-03-14T07:10:19;96261.03;;;11.74;48.67
40918;BME280;26644;50.248;19.032;2023-03-14T07:13:28;96261.31;;;11.81;48.44
40918;BME280;26644;50.248;19.032;2023-03-14T07:16:38;96266.81;;;11.81;48.30
40918;BME280;26644;50.248;19.032;2023-03-14T07:19:43;96288.81;;;11.93;48.01
40918;BME280;26644;50.248;19.032;2023-03-14T07:22:50;96280.72;;;11.97;48.27
40918;BME280;26644;50.248;19.032;2023-03-14T07:26:06;96277.03;;;11.93;48.14
40918;BME280;26644;50.248;19.032;2023-03-14T07:29:20;96295.38;;;12.01;48.02
40918;BME280;26644;50.248;19.032;2023-03-14T07:32:26;96294.25;;;12.15;47.89
40918;BME280;26644;50.248;19.032;2023-03-14T07:35:32;96288.06;;;12.18;47.61
40918;BME280;26644;50.248;19.032;2023-03-14T07:38:37;96302.41;;;12.36;47.31
40918;BME280;26644;50.248;19.032;2023-03-14T07:41:49;96314.44;;;12.68;47.00
40918;BME280;26644;50.248;19.032;2023-03-14T07:45:17;96309.63;;;12.90;46.31
40918;BME280;26644;50.248;19.032;2023-03-14T07:48:23;96309.59;;;13.02;45.85
40918;BME280;26644;50.248;19.032;2023-03-14T07:51:28;96316.56;;;13.12;45.61
40918;BME280;26644;50.248;19.032;2023-03-14T07:54:34;96315.53;;;13.29;45.52
40918;BME280;26644;50.248;19.032;2023-03-14T07:57:38;96304.66;;;13.49;44.82
40918;BME280;26644;50.248;19.032;2023-03-14T08:00:47;96307.25;;;13.86;44.61
40918;BME280;26644;50.248;19.032;2023-03-14T08:03:51;96304.75;;;14.41;43.65
40918;BME280;26644;50.248;19.032;2023-03-14T08:06:57;96308.50;;;15.00;42.60
40918;BME280;26644;50.248;19.032;2023-03-14T08:10:03;96284.81;;;14.83;41.71
40918;BME280;26644;50.248;19.032;2023-03-14T08:13:10;96308.81;;;14.79;41.69
40918;BME280;26644;50.248;19.032;2023-03-14T08:16:18;96311.53;;;14.59;42.10
40918;BME280;26644;50.248;19.032;2023-03-14T08:19:24;96312.13;;;14.53;42.48
40918;BME280;26644;50.248;19.032;2023-03-14T08:22:29;96314.19;;;14.56;42.39
40918;BME280;26644;50.248;19.032;2023-03-14T08:25:34;96304.78;;;14.76;42.48
40918;BME280;26644;50.248;19.032;2023-03-14T08:28:39;96327.44;;;14.82;42.30
40918;BME280;26644;50.248;19.032;2023-03-14T08:31:47;96320.75;;;15.19;41.59
40918;BME280;26644;50.248;19.032;2023-03-14T08:34:52;96307.47;;;15.24;41.43
40918;BME280;26644;50.248;19.032;2023-03-14T08:37:58;96322.81;;;15.22;41.63
40918;BME280;26644;50.248;19.032;2023-03-14T08:41:03;96321.09;;;15.17;41.51
40918;BME280;26644;50.248;19.032;2023-03-14T08:44:10;96335.28;;;15.16;41.89
40918;BME280;26644;50.248;19.032;2023-03-14T08:47:18;96340.22;;;15.06;41.85
40918;BME280;26644;50.248;19.032;2023-03-14T08:50:23;96336.41;;;15.31;41.89
40918;BME280;26644;50.248;19.032;2023-03-14T08:53:28;96332.34;;;15.08;41.84
40918;BME280;26644;50.248;19.032;2023-03-14T08:56:34;96332.50;;;14.80;42.54
40918;BME280;26644;50.248;19.032;2023-03-14T08:59:39;96317.03;;;14.59;42.99
40918;BME280;26644;50.248;19.032;2023-03-14T09:02:47;96320.50;;;14.40;43.40
40918;BME280;26644;50.248;19.032;2023-03-14T09:05:52;96328.56;;;14.01;44.25
40918;BME280;26644;50.248;19.032;2023-03-14T09:08:57;96328.31;;;13.78;44.92
40918;BME280;26644;50.248;19.032;2023-03-14T09:12:02;96341.69;;;13.64;45.57
40918;BME280;26644;50.248;19.032;2023-03-14T09:15:09;96337.63;;;13.57;45.76
40918;BME280;26644;50.248;19.032;2023-03-14T09:18:17;96355.47;;;13.76;46.00
40918;BME280;26644;50.248;19.032;2023-03-14T09:21:22;96352.47;;;13.69;45.67
40918;BME280;26644;50.248;19.032;2023-03-14T09:24:28;96342.84;;;13.63;45.79
40918;BME280;26644;50.248;19.032;2023-03-14T09:27:34;96364.78;;;13.71;45.81
40918;BME280;26644;50.248;19.032;2023-03-14T09:30:38;96369.63;;;13.62;45.68
40918;BME280;26644;50.248;19.032;2023-03-14T09:33:47;96358.34;;;13.67;45.98
40918;BME280;26644;50.248;19.032;2023-03-14T09:36:52;96357.81;;;13.61;46.11
40918;BME280;26644;50.248;19.032;2023-03-14T09:39:59;96349.91;;;13.60;46.31
40918;BME280;26644;50.248;19.032;2023-03-14T09:43:12;96334.72;;;13.82;46.06
40918;BME280;26644;50.248;19.032;2023-03-14T09:46:21;96343.94;;;14.02;45.65
40918;BME280;26644;50.248;19.032;2023-03-14T09:49:32;96347.09;;;14.33;45.18
40918;BME280;26644;50.248;19.032;2023-03-14T09:52:44;96360.59;;;14.82;44.42
40918;BME280;26644;50.248;19.032;2023-03-14T09:55:53;96364.81;;;15.11;43.58
40918;BME280;26644;50.248;19.032;2023-03-14T09:59:05;96358.69;;;15.38;42.94
40918;BME280;26644;50.248;19.032;2023-03-14T10:02:18;96355.28;;;15.64;42.86
40918;BME280;26644;50.248;19.032;2023-03-14T10:05:28;96379.91;;;15.89;42.47
40918;BME280;26644;50.248;19.032;2023-03-14T10:08:32;96382.94;;;15.64;42.57
40918;BME280;26644;50.248;19.032;2023-03-14T10:11:39;96379.91;;;15.69;42.36
40918;BME280;26644;50.248;19.032;2023-03-14T10:14:50;96385.97;;;15.39;42.60
40918;BME280;26644;50.248;19.032;2023-03-14T10:17:59;96382.28;;;15.16;43.57
40918;BME280;26644;50.248;19.032;2023-03-14T10:21:17;96394.41;;;14.95;44.09
40918;BME280;26644;50.248;19.032;2023-03-14T10:24:32;96392.84;;;14.78;44.67
40918;BME280;26644;50.248;19.032;2023-03-14T10:27:38;96397.72;;;14.53;45.54
40918;BME280;26644;50.248;19.032;2023-03-14T10:30:45;96391.72;;;14.35;45.64
40918;BME280;26644;50.248;19.032;2023-03-14T10:34:01;96396.84;;;14.20;46.33
40918;BME280;26644;50.248;19.032;2023-03-14T10:37:22;96396.28;;;13.99;46.75
40918;BME280;26644;50.248;19.032;2023-03-14T10:40:32;96404.91;;;13.97;47.19
40918;BME280;26644;50.248;19.032;2023-03-14T10:43:42;96392.34;;;13.71;47.74
40918;BME280;26644;50.248;19.032;2023-03-14T10:46:56;96389.03;;;13.66;47.93
40918;BME280;26644;50.248;19.032;2023-03-14T10:50:23;96387.56;;;13.56;48.29
40918;BME280;26644;50.248;19.032;2023-03-14T10:53:40;96379.88;;;13.49;48.37
40918;BME280;26644;50.248;19.032;2023-03-14T10:56:56;96388.63;;;13.51;48.53
40918;BME280;26644;50.248;19.032;2023-03-14T11:00:01;96384.25;;;13.50;48.62
40918;BME280;26644;50.248;19.032;2023-03-14T11:03:13;96380.34;;;13.51;48.57
40918;BME280;26644;50.248;19.032;2023-03-14T11:06:28;96380.22;;;13.48;48.88
40918;BME280;26644;50.248;19.032;2023-03-14T11:09:51;96389.09;;;13.41;49.12
40918;BME280;26644;50.248;19.032;2023-03-14T11:13:15;96378.47;;;13.27;49.58
40918;BME280;26644;50.248;19.032;2023-03-14T11:16:28;96387.47;;;13.40;49.53
40918;BME280;26644;50.248;19.032;2023-03-14T11:19:57;96378.66;;;13.34;50.17
40918;BME280;26644;50.248;19.032;2023-03-14T11:23:20;96379.13;;;13.36;50.36
40918;BME280;26644;50.248;19.032;2023-03-14T11:26:35;96369.38;;;13.14;50.88
40918;BME280;26644;50.248;19.032;2023-03-14T11:29:55;96372.00;;;13.10;50.98
40918;BME280;26644;50.248;19.032;2023-03-14T11:33:10;96386.13;;;13.09;51.63
40918;BME280;26644;50.248;19.032;2023-03-14T11:36:22;96377.53;;;13.10;52.20
40918;BME280;26644;50.248;19.032;2023-03-14T11:39:39;96389.81;;;13.01;52.73
40918;BME280;26644;50.248;19.032;2023-03-14T11:42:56;96401.16;;;12.74;53.78
40918;BME280;26644;50.248;19.032;2023-03-14T11:46:09;96391.31;;;12.61;54.16
40918;BME280;26644;50.248;19.032;2023-03-14T11:49:31;96379.03;;;12.46;54.40
40918;BME280;26644;50.248;19.032;2023-03-14T11:52:47;96376.94;;;12.31;54.23
40918;BME280;26644;50.248;19.032;2023-03-14T11:55:58;96390.13;;;12.37;54.30
40918;BME280;26644;50.248;19.032;2023-03-14T11:59:12;96366.63;;;12.27;54.18
40918;BME280;26644;50.248;19.032;2023-03-14T12:02:27;96359.16;;;12.28;53.49
40918;BME280;26644;50.248;19.032;2023-03-14T12:05:54;96370.94;;;12.28;53.28
40918;BME280;26644;50.248;19.032;2023-03-14T12:09:08;96381.03;;;12.24;53.35
40918;BME280;26644;50.248;19.032;2023-03-14T12:12:20;96364.78;;;12.32;53.35
40918;BME280;26644;50.248;19.032;2023-03-14T12:15:31;96366.84;;;12.35;53.35
40918;BME280;26644;50.248;19.032;2023-03-14T12:18:44;96366.28;;;12.29;53.51
40918;BME280;26644;50.248;19.032;2023-03-14T12:21:54;96357.44;;;12.36;53.35
40918;BME280;26644;50.248;19.032;2023-03-14T12:25:14;96347.34;;;12.27;53.34
40918;BME280;26644;50.248;19.032;2023-03-14T12:28:30;96347.56;;;12.22;53.75
40918;BME280;26644;50.248;19.032;2023-03-14T12:31:42;96359.16;;;12.28;53.72
40918;BME280;26644;50.248;19.032;2023-03-14T12:34:49;96356.84;;;12.18;53.89
40918;BME280;26644;50.248;19.032;2023-03-14T12:37:57;96359.94;;;12.16;54.16
40918;BME280;26644;50.248;19.032;2023-03-14T12:41:15;96365.44;;;12.28;54.12
40918;BME280;26644;50.248;19.032;2023-03-14T12:44:46;96362.69;;;12.28;54.65
40918;BME280;26644;50.248;19.032;2023-03-14T12:48:04;96338.97;;;12.36;54.71
40918;BME280;26644;50.248;19.032;2023-03-14T12:51:15;96349.31;;;12.52;54.87
40918;BME280;26644;50.248;19.032;2023-03-14T12:54:35;96340.81;;;12.44;55.64
40918;BME280;26644;50.248;19.032;2023-03-14T12:57:56;96346.66;;;12.31;56.45
40918;BME280;26644;50.248;19.032;2023-03-14T13:01:16;96349.06;;;12.20;57.34
40918;BME280;26644;50.248;19.032;2023-03-14T13:04:33;96349.63;;;12.13;57.59
40918;BME280;26644;50.248;19.032;2023-03-14T13:08:08;96345.94;;;12.09;58.09
40918;BME280;26644;50.248;19.032;2023-03-14T13:11:16;96340.31;;;12.05;58.70
40918;BME280;26644;50.248;19.032;2023-03-14T13:14:24;96349.47;;;12.09;58.70
40918;BME280;26644;50.248;19.032;2023-03-14T13:17:33;96349.00;;;12.07;59.07
40918;BME280;26644;50.248;19.032;2023-03-14T13:20:46;96343.84;;;12.06;59.45
40918;BME280;26644;50.248;19.032;2023-03-14T13:23:58;96343.41;;;12.04;59.94
40918;BME280;26644;50.248;19.032;2023-03-14T13:27:17;96337.38;;;11.89;60.59
40918;BME280;26644;50.248;19.032;2023-03-14T13:30:28;96350.31;;;11.89;61.03
40918;BME280;26644;50.248;19.032;2023-03-14T13:33:40;96366.56;;;11.82;61.45
40918;BME280;26644;50.248;19.032;2023-03-14T13:36:52;96371.69;;;11.71;62.00
40918;BME280;26644;50.248;19.032;2023-03-14T13:39:57;96373.09;;;11.77;62.00
40918;BME280;26644;50.248;19.032;2023-03-14T13:43:06;96384.88;;;11.77;62.38
40918;BME280;26644;50.248;19.032;2023-03-14T13:46:22;96370.34;;;11.77;62.70
40918;BME280;26644;50.248;19.032;2023-03-14T13:49:30;96372.94;;;11.73;63.14
40918;BME280;26644;50.248;19.032;2023-03-14T13:52:40;96377.03;;;11.67;63.73
40918;BME280;26644;50.248;19.032;2023-03-14T13:55:45;96379.66;;;11.64;63.86
40918;BME280;26644;50.248;19.032;2023-03-14T13:58:50;96383.56;;;11.63;64.04
40918;BME280;26644;50.248;19.032;2023-03-14T14:01:59;96382.63;;;11.58;64.62
40918;BME280;26644;50.248;19.032;2023-03-14T14:05:10;96393.81;;;11.53;65.01
40918;BME280;26644;50.248;19.032;2023-03-14T14:08:18;96384.84;;;11.44;65.56
40918;BME280;26644;50.248;19.032;2023-03-14T14:11:37;96381.00;;;11.36;65.92
40918;BME280;26644;50.248;19.032;2023-03-14T14:14:50;96368.75;;;11.34;65.70
40918;BME280;26644;50.248;19.032;2023-03-14T14:18:02;96375.44;;;11.45;65.88
40918;BME280;26644;50.248;19.032;2023-03-14T14:21:13;96368.56;;;11.39;66.20
40918;BME280;26644;50.248;19.032;2023-03-14T14:24:24;96368.06;;;11.37;66.53
40918;BME280;26644;50.248;19.032;2023-03-14T14:27:37;96368.59;;;11.30;67.24
40918;BME280;26644;50.248;19.032;2023-03-14T14:30:45;96339.53;;;11.29;67.69
40918;BME280;26644;50.248;19.032;2023-03-14T14:33:55;96343.63;;;11.23;68.28
40918;BME280;26644;50.248;19.032;2023-03-14T14:37:02;96328.97;;;11.19;68.92
40918;BME280;26644;50.248;19.032;2023-03-14T14:40:17;96336.25;;;11.15;68.88
40918;BME280;26644;50.248;19.032;2023-03-14T14:43:28;96330.63;;;11.11;69.34
40918;BME280;26644;50.248;19.032;2023-03-14T14:46:38;96336.47;;;11.09;69.35
40918;BME280;26644;50.248;19.032;2023-03-14T14:49:44;96336.50;;;11.01;69.87
40918;BME280;26644;50.248;19.032;2023-03-14T14:52:56;96329.94;;;10.93;70.11
40918;BME280;26644;50.248;19.032;2023-03-14T14:56:13;96330.28;;;10.91;70.18
40918;BME280;26644;50.248;19.032;2023-03-14T14:59:26;96333.81;;;10.92;70.02
40918;BME280;26644;50.248;19.032;2023-03-14T15:02:37;96333.16;;;10.95;70.34
40918;BME280;26644;50.248;19.032;2023-03-14T15:05:46;96303.00;;;10.86;70.38
40918;BME280;26644;50.248;19.032;2023-03-14T15:08:53;96317.16;;;10.97;70.48
40918;BME280;26644;50.248;19.032;2023-03-14T15:12:00;96335.84;;;11.04;70.21
40918;BME280;26644;50.248;19.032;2023-03-14T15:15:06;96333.28;;;10.99;70.14
40918;BME280;26644;50.248;19.032;2023-03-14T15:18:15;96328.81;;;10.94;69.88
40918;BME280;26644;50.248;19.032;2023-03-14T15:21:22;96335.44;;;10.93;70.06
40918;BME280;26644;50.248;19.032;2023-03-14T15:24:27;96331.69;;;10.98;69.76
40918;BME280;26644;50.248;19.032;2023-03-14T15:27:35;96325.13;;;10.90;70.07
40918;BME280;26644;50.248;19.032;2023-03-14T15:30:43;96331.13;;;10.83;70.08
40918;BME280;26644;50.248;19.032;2023-03-14T15:33:49;96316.84;;;10.69;70.22
40918;BME280;26644;50.248;19.032;2023-03-14T15:36:54;96321.22;;;10.70;70.60
40918;BME280;26644;50.248;19.032;2023-03-14T15:39:59;96278.41;;;10.39;70.53
40918;BME280;26644;50.248;19.032;2023-03-14T15:43:08;96309.06;;;10.71;70.72
40918;BME280;26644;50.248;19.032;2023-03-14T15:46:14;96307.81;;;10.68;70.85
40918;BME280;26644;50.248;19.032;2023-03-14T15:49:20;96304.75;;;10.70;70.56
40918;BME280;26644;50.248;19.032;2023-03-14T15:52:25;96293.25;;;10.76;70.43
40918;BME280;26644;50.248;19.032;2023-03-14T15:55:30;96287.59;;;10.73;70.44
40918;BME280;26644;50.248;19.032;2023-03-14T15:58:38;96285.94;;;10.81;69.69
40918;BME280;26644;50.248;19.032;2023-03-14T16:01:47;96262.72;;;10.78;69.38
40918;BME280;26644;50.248;19.032;2023-03-14T16:04:52;96261.59;;;10.79;68.95
40918;BME280;26644;50.248;19.032;2023-03-14T16:07:57;96262.22;;;10.76;68.71
40918;BME280;26644;50.248;19.032;2023-03-14T16:11:03;96274.69;;;10.73;68.56
40918;BME280;26644;50.248;19.032;2023-03-14T16:14:11;96276.63;;;10.73;68.65
40918;BME280;26644;50.248;19.032;2023-03-14T16:17:17;96286.28;;;10.79;68.28
40918;BME280;26644;50.248;19.032;2023-03-14T16:20:22;96272.69;;;10.83;68.31
40918;BME280;26644;50.248;19.032;2023-03-14T16:23:29;96287.88;;;10.80;68.55
40918;BME280;26644;50.248;19.032;2023-03-14T16:26:33;96281.97;;;10.69;68.35
40918;BME280;26644;50.248;19.032;2023-03-14T16:29:42;96299.84;;;10.75;68.33
40918;BME280;26644;50.248;19.032;2023-03-14T16:32:48;96311.00;;;10.79;68.55
40918;BME280;26644;50.248;19.032;2023-03-14T16:35:55;96316.81;;;10.77;68.66